sensor_id;sensor_type;location;lat;lon;timestamp;pressure;altitude;pressure_sealevel;temperature;humidity
72414;BME280;60995;52.154;4.498;2022-11-25T00:01:15;100746.94;;;10.49;86.32
72414;BME280;60995;52.154;4.498;2022-11-25T00:03:32;100758.94;;;10.47;86.34
72414;BME280;60995;52.154;4.498;2022-11-25T00:05:49;100749.53;;;10.51;86.17
72414;BME280;60995;52.154;4.498;2022-11-25T00:08:05;100751.84;;;10.65;85.29
72414;BME280;60995;52.154;4.498;2022-11-25T00:10:22;100752.81;;;10.45;86.39
72414;BME280;60995;52.154;4.498;2022-11-25T00:12:38;100754.53;;;10.55;85.84
72414;BME280;60995;52.154;4.498;2022-11-25T00:14:54;100757.25;;;10.46;86.57
72414;BME280;60995;52.154;4.498;2022-11-25T00:17:10;100752.50;;;10.48;86.40
72414;BME280;60995;52.154;4.498;2022-11-25T00:19:26;100749.53;;;10.51;86.92
72414;BME280;60995;52.154;4.498;2022-11-25T00:21:42;100748.13;;;10.56;86.24
72414;BME280;60995;52.154;4.498;2022-11-25T00:23:59;100745.84;;;10.62;86.05
72414;BME280;60995;52.154;4.498;2022-11-25T00:26:18;100748.00;;;10.78;85.84
72414;BME280;60995;52.154;4.498;2022-11-25T00:28:35;100750.41;;;10.71;85.88
72414;BME280;60995;52.154;4.498;2022-11-25T00:30:51;100748.00;;;10.78;85.56
72414;BME280;60995;52.154;4.498;2022-11-25T00:33:07;100754.56;;;10.75;85.91
72414;BME280;60995;52.154;4.498;2022-11-25T00:35:23;100759.44;;;11.01;84.97
72414;BME280;60995;52.154;4.498;2022-11-25T00:37:39;100760.44;;;11.00;84.75
72414;BME280;60995;52.154;4.498;2022-11-25T00:39:55;100761.56;;;10.78;86.18
72414;BME280;60995;52.154;4.498;2022-11-25T00:42:11;100760.44;;;10.80;85.98
72414;BME280;60995;52.154;4.498;2022-11-25T00:44:46;100755.28;;;10.77;85.99
72414;BME280;60995;52.154;4.498;2022-11-25T00:47:03;100753.56;;;10.76;86.63
72414;BME280;60995;52.154;4.498;2022-11-25T00:49:22;100756.72;;;11.11;86.24
72414;BME280;60995;52.154;4.498;2022-11-25T00:51:38;100773.72;;;11.03;85.95
72414;BME280;60995;52.154;4.498;2022-11-25T00:53:54;100762.03;;;11.12;85.53
72414;BME280;60995;52.154;4.498;2022-11-25T00:56:10;100768.88;;;10.97;85.61
72414;BME280;60995;52.154;4.498;2022-11-25T00:58:29;100772.75;;;10.94;85.64
72414;BME280;60995;52.154;4.498;2022-11-25T01:00:45;100771.75;;;11.15;85.06
72414;BME280;60995;52.154;4.498;2022-11-25T01:03:01;100763.59;;;10.95;85.40
72414;BME280;60995;52.154;4.498;2022-11-25T01:05:17;100775.31;;;10.96;85.84
72414;BME280;60995;52.154;4.498;2022-11-25T01:07:33;100768.28;;;10.83;86.41
72414;BME280;60995;52.154;4.498;2022-11-25T01:09:49;100766.69;;;10.81;86.13
72414;BME280;60995;52.154;4.498;2022-11-25T01:12:05;100765.16;;;10.78;86.75
72414;BME280;60995;52.154;4.498;2022-11-25T01:14:22;100781.28;;;10.80;86.66
72414;BME280;60995;52.154;4.498;2022-11-25T01:16:38;100777.59;;;10.90;86.22
72414;BME280;60995;52.154;4.498;2022-11-25T01:18:54;100773.53;;;10.55;87.39
72414;BME280;60995;52.154;4.498;2022-11-25T01:21:11;100779.53;;;10.69;87.64
72414;BME280;60995;52.154;4.498;2022-11-25T01:23:29;100770.59;;;10.88;86.94
72414;BME280;60995;52.154;4.498;2022-11-25T01:25:45;100777.59;;;11.00;86.12
72414;BME280;60995;52.154;4.498;2022-11-25T01:28:01;100778.88;;;10.96;86.22
72414;BME280;60995;52.154;4.498;2022-11-25T01:30:17;100782.16;;;11.00;86.15
72414;BME280;60995;52.154;4.498;2022-11-25T01:32:33;100775.88;;;10.99;86.28
72414;BME280;60995;52.154;4.498;2022-11-25T01:34:49;100764.44;;;10.86;86.11
72414;BME280;60995;52.154;4.498;2022-11-25T01:37:05;100763.84;;;10.72;86.88
72414;BME280;60995;52.154;4.498;2022-11-25T01:39:22;100770.44;;;10.80;86.95
72414;BME280;60995;52.154;4.498;2022-11-25T01:41:39;100762.44;;;10.78;86.92
72414;BME280;60995;52.154;4.498;2022-11-25T01:46:26;100776.72;;;10.80;86.63
72414;BME280;60995;52.154;4.498;2022-11-25T01:48:52;100774.16;;;10.79;86.68
72414;BME280;60995;52.154;4.498;2022-11-25T01:53:40;100765.00;;;10.80;86.53
72414;BME280;60995;52.154;4.498;2022-11-25T01:55:58;100760.72;;;10.77;86.98
72414;BME280;60995;52.154;4.498;2022-11-25T02:01:03;100765.84;;;10.80;86.98
72414;BME280;60995;52.154;4.498;2022-11-25T02:03:20;100767.13;;;10.86;86.45
72414;BME280;60995;52.154;4.498;2022-11-25T02:05:44;100774.72;;;11.12;85.92
72414;BME280;60995;52.154;4.498;2022-11-25T02:08:05;100773.00;;;10.91;86.14
72414;BME280;60995;52.154;4.498;2022-11-25T02:10:24;100777.56;;;10.81;86.13
72414;BME280;60995;52.154;4.498;2022-11-25T02:12:43;100771.56;;;10.77;86.64
72414;BME280;60995;52.154;4.498;2022-11-25T02:15:01;100775.00;;;10.79;86.76
72414;BME280;60995;52.154;4.498;2022-11-25T02:17:18;100776.56;;;10.82;86.34
72414;BME280;60995;52.154;4.498;2022-11-25T02:22:02;100780.44;;;10.89;86.47
72414;BME280;60995;52.154;4.498;2022-11-25T02:24:36;100774.72;;;10.92;86.00
72414;BME280;60995;52.154;4.498;2022-11-25T02:27:07;100776.16;;;10.96;86.06
72414;BME280;60995;52.154;4.498;2022-11-25T02:29:24;100769.72;;;10.97;85.76
72414;BME280;60995;52.154;4.498;2022-11-25T02:31:40;100771.59;;;10.97;85.63
72414;BME280;60995;52.154;4.498;2022-11-25T02:33:58;100772.91;;;11.12;84.80
72414;BME280;60995;52.154;4.498;2022-11-25T02:36:18;100769.84;;;10.86;85.59
72414;BME280;60995;52.154;4.498;2022-11-25T02:40:53;100779.72;;;10.87;85.47
72414;BME280;60995;52.154;4.498;2022-11-25T02:43:16;100780.16;;;10.82;85.45
72414;BME280;60995;52.154;4.498;2022-11-25T02:45:38;100780.44;;;10.89;84.75
72414;BME280;60995;52.154;4.498;2022-11-25T02:48:05;100788.41;;;10.81;85.21
72414;BME280;60995;52.154;4.498;2022-11-25T02:50:21;100790.44;;;10.79;85.28
72414;BME280;60995;52.154;4.498;2022-11-25T02:52:37;100793.88;;;10.90;84.72
72414;BME280;60995;52.154;4.498;2022-11-25T02:54:53;100809.47;;;10.98;84.60
72414;BME280;60995;52.154;4.498;2022-11-25T02:57:09;100799.00;;;10.93;85.25
72414;BME280;60995;52.154;4.498;2022-11-25T02:59:25;100790.84;;;10.74;84.93
72414;BME280;60995;52.154;4.498;2022-11-25T03:01:41;100807.44;;;10.90;84.76
72414;BME280;60995;52.154;4.498;2022-11-25T03:03:57;100800.56;;;10.76;85.42
72414;BME280;60995;52.154;4.498;2022-11-25T03:06:14;100798.38;;;10.61;85.20
72414;BME280;60995;52.154;4.498;2022-11-25T03:08:30;100806.69;;;10.69;85.24
72414;BME280;60995;52.154;4.498;2022-11-25T03:10:46;100801.56;;;10.75;85.23
72414;BME280;60995;52.154;4.498;2022-11-25T03:13:02;100803.56;;;10.73;85.19
72414;BME280;60995;52.154;4.498;2022-11-25T03:15:18;100802.56;;;10.74;85.09
72414;BME280;60995;52.154;4.498;2022-11-25T03:17:35;100802.53;;;10.65;85.56
72414;BME280;60995;52.154;4.498;2022-11-25T03:19:52;100810.97;;;10.71;84.88
72414;BME280;60995;52.154;4.498;2022-11-25T03:22:08;100807.25;;;10.72;84.47
72414;BME280;60995;52.154;4.498;2022-11-25T03:24:24;100814.13;;;10.76;84.62
72414;BME280;60995;52.154;4.498;2022-11-25T03:26:40;100819.09;;;10.71;84.60
72414;BME280;60995;52.154;4.498;2022-11-25T03:28:56;100814.06;;;10.57;85.28
72414;BME280;60995;52.154;4.498;2022-11-25T03:31:12;100809.53;;;10.67;84.40
72414;BME280;60995;52.154;4.498;2022-11-25T03:33:28;100818.50;;;10.58;84.74
72414;BME280;60995;52.154;4.498;2022-11-25T03:35:46;100818.50;;;10.58;85.14
72414;BME280;60995;52.154;4.498;2022-11-25T03:38:03;100818.91;;;10.43;85.18
72414;BME280;60995;52.154;4.498;2022-11-25T03:40:19;100831.16;;;10.38;85.38
72414;BME280;60995;52.154;4.498;2022-11-25T03:42:35;100834.91;;;10.25;85.79
72414;BME280;60995;52.154;4.498;2022-11-25T03:44:52;100837.94;;;10.32;85.17
72414;BME280;60995;52.154;4.498;2022-11-25T03:47:08;100841.31;;;10.24;85.78
72414;BME280;60995;52.154;4.498;2022-11-25T03:49:24;100843.78;;;10.27;85.54
72414;BME280;60995;52.154;4.498;2022-11-25T03:51:40;100839.84;;;10.10;86.15
72414;BME280;60995;52.154;4.498;2022-11-25T03:53:56;100847.38;;;10.07;85.88
72414;BME280;60995;52.154;4.498;2022-11-25T03:56:12;100838.66;;;10.03;86.12
72414;BME280;60995;52.154;4.498;2022-11-25T03:58:28;100838.50;;;10.05;85.55
72414;BME280;60995;52.154;4.498;2022-11-25T04:00:44;100843.47;;;10.00;85.24
72414;BME280;60995;52.154;4.498;2022-11-25T04:03:02;100841.72;;;9.89;86.20
72414;BME280;60995;52.154;4.498;2022-11-25T04:05:18;100839.47;;;9.94;85.74
72414;BME280;60995;52.154;4.498;2022-11-25T04:07:34;100844.88;;;9.94;85.64
72414;BME280;60995;52.154;4.498;2022-11-25T04:09:50;100855.72;;;9.94;85.74
72414;BME280;60995;52.154;4.498;2022-11-25T04:12:06;100862.00;;;9.94;85.40
72414;BME280;60995;52.154;4.498;2022-11-25T04:14:41;100859.97;;;9.87;85.23
72414;BME280;60995;52.154;4.498;2022-11-25T04:16:57;100858.91;;;9.78;85.77
72414;BME280;60995;52.154;4.498;2022-11-25T04:19:13;100860.75;;;9.77;85.67
72414;BME280;60995;52.154;4.498;2022-11-25T04:21:29;100856.34;;;9.76;85.61
72414;BME280;60995;52.154;4.498;2022-11-25T04:23:45;100863.91;;;9.83;85.65
72414;BME280;60995;52.154;4.498;2022-11-25T04:26:01;100869.88;;;9.76;85.74
72414;BME280;60995;52.154;4.498;2022-11-25T04:28:17;100868.09;;;9.87;85.11
72414;BME280;60995;52.154;4.498;2022-11-25T04:30:33;100861.75;;;9.76;85.07
72414;BME280;60995;52.154;4.498;2022-11-25T04:32:49;100866.94;;;9.68;85.76
72414;BME280;60995;52.154;4.498;2022-11-25T04:35:05;100873.09;;;9.70;86.06
72414;BME280;60995;52.154;4.498;2022-11-25T04:37:21;100877.78;;;9.68;85.49
72414;BME280;60995;52.154;4.498;2022-11-25T04:39:37;100885.53;;;9.73;85.35
72414;BME280;60995;52.154;4.498;2022-11-25T04:41:53;100887.78;;;9.68;85.48
72414;BME280;60995;52.154;4.498;2022-11-25T04:44:29;100890.94;;;9.73;84.66
72414;BME280;60995;52.154;4.498;2022-11-25T04:46:45;100888.56;;;9.58;85.46
72414;BME280;60995;52.154;4.498;2022-11-25T04:49:01;100897.72;;;9.67;85.29
72414;BME280;60995;52.154;4.498;2022-11-25T04:51:19;100901.38;;;9.56;85.75
72414;BME280;60995;52.154;4.498;2022-11-25T04:53:35;100902.47;;;9.54;85.60
72414;BME280;60995;52.154;4.498;2022-11-25T04:55:51;100903.47;;;9.53;86.10
72414;BME280;60995;52.154;4.498;2022-11-25T04:58:08;100908.00;;;9.64;85.76
72414;BME280;60995;52.154;4.498;2022-11-25T05:00:26;100901.69;;;9.63;85.83
72414;BME280;60995;52.154;4.498;2022-11-25T05:02:42;100904.94;;;9.57;85.60
72414;BME280;60995;52.154;4.498;2022-11-25T05:04:59;100907.13;;;9.63;85.43
72414;BME280;60995;52.154;4.498;2022-11-25T05:07:16;100916.50;;;9.59;85.53
72414;BME280;60995;52.154;4.498;2022-11-25T05:09:34;100908.50;;;9.57;85.21
72414;BME280;60995;52.154;4.498;2022-11-25T05:11:50;100919.00;;;9.51;85.11
72414;BME280;60995;52.154;4.498;2022-11-25T05:14:06;100911.06;;;9.59;85.32
72414;BME280;60995;52.154;4.498;2022-11-25T05:16:22;100923.94;;;9.46;85.64
72414;BME280;60995;52.154;4.498;2022-11-25T05:18:38;100923.53;;;9.50;85.94
72414;BME280;60995;52.154;4.498;2022-11-25T05:20:54;100926.16;;;9.52;85.55
72414;BME280;60995;52.154;4.498;2022-11-25T05:23:15;100934.78;;;9.46;85.38
72414;BME280;60995;52.154;4.498;2022-11-25T05:25:31;100938.19;;;9.48;85.13
72414;BME280;60995;52.154;4.498;2022-11-25T05:27:47;100947.41;;;9.56;85.49
72414;BME280;60995;52.154;4.498;2022-11-25T05:30:04;100953.41;;;9.71;85.26
72414;BME280;60995;52.154;4.498;2022-11-25T05:32:20;100941.50;;;9.84;84.33
72414;BME280;60995;52.154;4.498;2022-11-25T05:34:36;100948.31;;;9.78;83.62
72414;BME280;60995;52.154;4.498;2022-11-25T05:36:53;100946.25;;;9.70;84.16
72414;BME280;60995;52.154;4.498;2022-11-25T05:39:09;100955.94;;;9.52;85.07
72414;BME280;60995;52.154;4.498;2022-11-25T05:41:25;100957.63;;;9.53;84.28
72414;BME280;60995;52.154;4.498;2022-11-25T05:43:42;100954.34;;;9.49;84.76
72414;BME280;60995;52.154;4.498;2022-11-25T05:45:58;100950.75;;;9.49;84.18
72414;BME280;60995;52.154;4.498;2022-11-25T05:48:14;100962.34;;;9.39;85.04
72414;BME280;60995;52.154;4.498;2022-11-25T05:50:30;100959.91;;;9.36;84.97
72414;BME280;60995;52.154;4.498;2022-11-25T05:52:46;100956.72;;;9.31;85.37
72414;BME280;60995;52.154;4.498;2022-11-25T05:55:02;100951.31;;;9.31;85.54
72414;BME280;60995;52.154;4.498;2022-11-25T05:57:18;100955.25;;;9.27;85.35
72414;BME280;60995;52.154;4.498;2022-11-25T05:59:34;100961.03;;;9.34;84.68
72414;BME280;60995;52.154;4.498;2022-11-25T06:01:51;100962.03;;;9.21;84.94
72414;BME280;60995;52.154;4.498;2022-11-25T06:04:08;100964.59;;;9.23;85.32
72414;BME280;60995;52.154;4.498;2022-11-25T06:06:24;100972.28;;;9.18;85.48
72414;BME280;60995;52.154;4.498;2022-11-25T06:08:41;100969.78;;;9.15;85.52
72414;BME280;60995;52.154;4.498;2022-11-25T06:10:57;100958.94;;;9.26;85.27
72414;BME280;60995;52.154;4.498;2022-11-25T06:13:13;100966.84;;;9.18;85.07
72414;BME280;60995;52.154;4.498;2022-11-25T06:15:29;100969.91;;;9.13;85.00
72414;BME280;60995;52.154;4.498;2022-11-25T06:17:45;100974.84;;;9.19;85.17
72414;BME280;60995;52.154;4.498;2022-11-25T06:20:01;100978.66;;;9.17;84.70
72414;BME280;60995;52.154;4.498;2022-11-25T06:22:17;100993.31;;;9.14;84.85
72414;BME280;60995;52.154;4.498;2022-11-25T06:24:34;100996.38;;;9.21;85.12
72414;BME280;60995;52.154;4.498;2022-11-25T06:26:50;100995.13;;;9.14;85.10
72414;BME280;60995;52.154;4.498;2022-11-25T06:29:06;101001.56;;;9.13;84.93
72414;BME280;60995;52.154;4.498;2022-11-25T06:31:23;101008.19;;;9.20;84.29
72414;BME280;60995;52.154;4.498;2022-11-25T06:33:40;101002.53;;;9.12;84.65
72414;BME280;60995;52.154;4.498;2022-11-25T06:35:58;101018.50;;;9.03;84.26
72414;BME280;60995;52.154;4.498;2022-11-25T06:38:17;101014.22;;;9.01;84.75
72414;BME280;60995;52.154;4.498;2022-11-25T06:40:36;101015.72;;;9.05;84.43
72414;BME280;60995;52.154;4.498;2022-11-25T06:42:57;101015.31;;;9.09;84.33
72414;BME280;60995;52.154;4.498;2022-11-25T06:45:13;101025.28;;;8.98;84.42
72414;BME280;60995;52.154;4.498;2022-11-25T06:47:29;101021.47;;;8.89;84.88
72414;BME280;60995;52.154;4.498;2022-11-25T06:49:45;101029.47;;;9.02;84.67
72414;BME280;60995;52.154;4.498;2022-11-25T06:52:01;101031.31;;;9.01;84.07
72414;BME280;60995;52.154;4.498;2022-11-25T06:54:17;101038.72;;;8.88;84.65
72414;BME280;60995;52.154;4.498;2022-11-25T06:56:33;101035.84;;;9.01;84.27
72414;BME280;60995;52.154;4.498;2022-11-25T06:58:50;101042.63;;;8.95;84.63
72414;BME280;60995;52.154;4.498;2022-11-25T07:01:15;101043.38;;;8.86;84.69
72414;BME280;60995;52.154;4.498;2022-11-25T07:03:36;101052.94;;;8.78;85.14
72414;BME280;60995;52.154;4.498;2022-11-25T07:05:54;101048.53;;;8.89;84.87
72414;BME280;60995;52.154;4.498;2022-11-25T07:08:12;101062.56;;;8.94;84.58
72414;BME280;60995;52.154;4.498;2022-11-25T07:10:28;101058.84;;;8.84;84.99
72414;BME280;60995;52.154;4.498;2022-11-25T07:12:44;101059.59;;;8.86;85.09
72414;BME280;60995;52.154;4.498;2022-11-25T07:15:01;101067.13;;;8.93;84.45
72414;BME280;60995;52.154;4.498;2022-11-25T07:17:17;101063.06;;;8.88;84.17
72414;BME280;60995;52.154;4.498;2022-11-25T07:19:33;101064.75;;;8.89;84.31
72414;BME280;60995;52.154;4.498;2022-11-25T07:21:50;101083.19;;;8.84;84.21
72414;BME280;60995;52.154;4.498;2022-11-25T07:24:06;101091.81;;;8.89;84.68
72414;BME280;60995;52.154;4.498;2022-11-25T07:26:24;101086.66;;;8.86;84.13
72414;BME280;60995;52.154;4.498;2022-11-25T07:28:42;101089.25;;;8.87;83.62
72414;BME280;60995;52.154;4.498;2022-11-25T07:31:09;101089.41;;;8.97;83.52
72414;BME280;60995;52.154;4.498;2022-11-25T07:33:27;101097.00;;;8.92;83.77
72414;BME280;60995;52.154;4.498;2022-11-25T07:35:44;101099.50;;;9.06;83.04
72414;BME280;60995;52.154;4.498;2022-11-25T07:38:00;101096.50;;;8.98;83.20
72414;BME280;60995;52.154;4.498;2022-11-25T07:40:16;101090.16;;;9.22;82.63
72414;BME280;60995;52.154;4.498;2022-11-25T07:42:32;101100.72;;;9.14;82.65
72414;BME280;60995;52.154;4.498;2022-11-25T07:44:48;101111.91;;;9.20;82.61
72414;BME280;60995;52.154;4.498;2022-11-25T07:47:04;101115.50;;;9.32;81.96
72414;BME280;60995;52.154;4.498;2022-11-25T07:49:21;101117.22;;;9.33;82.21
72414;BME280;60995;52.154;4.498;2022-11-25T07:51:46;101131.88;;;9.42;81.80
72414;BME280;60995;52.154;4.498;2022-11-25T07:54:03;101124.81;;;9.73;82.06
72414;BME280;60995;52.154;4.498;2022-11-25T07:56:21;101130.03;;;9.76;80.69
72414;BME280;60995;52.154;4.498;2022-11-25T07:58:38;101146.41;;;9.64;79.95
72414;BME280;60995;52.154;4.498;2022-11-25T08:00:55;101149.91;;;10.09;80.16
72414;BME280;60995;52.154;4.498;2022-11-25T08:03:11;101140.34;;;10.70;77.08
72414;BME280;60995;52.154;4.498;2022-11-25T08:05:27;101146.88;;;11.00;76.54
72414;BME280;60995;52.154;4.498;2022-11-25T08:07:43;101163.09;;;11.42;73.33
72414;BME280;60995;52.154;4.498;2022-11-25T08:09:59;101158.66;;;11.72;70.84
72414;BME280;60995;52.154;4.498;2022-11-25T08:12:16;101163.50;;;12.10;70.38
72414;BME280;60995;52.154;4.498;2022-11-25T08:14:32;101163.00;;;12.45;68.84
72414;BME280;60995;52.154;4.498;2022-11-25T08:16:49;101174.19;;;12.81;67.92
72414;BME280;60995;52.154;4.498;2022-11-25T08:19:07;101168.47;;;13.61;65.97
72414;BME280;60995;52.154;4.498;2022-11-25T08:21:26;101164.66;;;14.28;63.47
72414;BME280;60995;52.154;4.498;2022-11-25T08:23:43;101160.47;;;14.51;61.09
72414;BME280;60995;52.154;4.498;2022-11-25T08:26:03;101173.72;;;14.28;62.13
72414;BME280;60995;52.154;4.498;2022-11-25T08:28:21;101167.31;;;14.65;60.56
72414;BME280;60995;52.154;4.498;2022-11-25T08:30:37;101180.75;;;15.03;59.20
72414;BME280;60995;52.154;4.498;2022-11-25T08:32:53;101175.38;;;14.93;59.53
72414;BME280;60995;52.154;4.498;2022-11-25T08:35:09;101167.38;;;15.18;58.20
72414;BME280;60995;52.154;4.498;2022-11-25T08:37:26;101176.25;;;15.73;57.35
72414;BME280;60995;52.154;4.498;2022-11-25T08:39:47;101176.19;;;16.42;55.25
72414;BME280;60995;52.154;4.498;2022-11-25T08:42:04;101184.78;;;16.63;54.09
72414;BME280;60995;52.154;4.498;2022-11-25T08:44:21;101195.06;;;16.61;53.80
72414;BME280;60995;52.154;4.498;2022-11-25T08:46:37;101189.47;;;16.12;55.20
72414;BME280;60995;52.154;4.498;2022-11-25T08:48:54;101204.41;;;16.26;55.25
72414;BME280;60995;52.154;4.498;2022-11-25T08:51:12;101207.25;;;16.08;55.32
72414;BME280;60995;52.154;4.498;2022-11-25T08:53:30;101210.50;;;16.62;54.51
72414;BME280;60995;52.154;4.498;2022-11-25T08:55:46;101208.94;;;16.09;55.92
72414;BME280;60995;52.154;4.498;2022-11-25T08:58:04;101218.25;;;17.33;52.63
72414;BME280;60995;52.154;4.498;2022-11-25T09:00:24;101220.78;;;16.77;54.22
72414;BME280;60995;52.154;4.498;2022-11-25T09:02:40;101211.94;;;17.16;52.83
72414;BME280;60995;52.154;4.498;2022-11-25T09:04:57;101217.03;;;17.02;53.36
72414;BME280;60995;52.154;4.498;2022-11-25T09:07:13;101221.31;;;16.89;53.91
72414;BME280;60995;52.154;4.498;2022-11-25T09:09:30;101224.84;;;16.56;54.54
72414;BME280;60995;52.154;4.498;2022-11-25T09:11:47;101224.25;;;17.20;53.71
72414;BME280;60995;52.154;4.498;2022-11-25T09:14:03;101232.47;;;17.45;53.46
72414;BME280;60995;52.154;4.498;2022-11-25T09:16:19;101233.44;;;17.68;52.52
72414;BME280;60995;52.154;4.498;2022-11-25T09:18:36;101230.19;;;17.73;52.76
72414;BME280;60995;52.154;4.498;2022-11-25T09:20:52;101238.00;;;18.09;51.67
72414;BME280;60995;52.154;4.498;2022-11-25T09:23:08;101239.53;;;18.12;51.40
72414;BME280;60995;52.154;4.498;2022-11-25T09:25:24;101234.56;;;19.01;49.48
72414;BME280;60995;52.154;4.498;2022-11-25T09:27:41;101243.22;;;19.37;49.52
72414;BME280;60995;52.154;4.498;2022-11-25T09:29:57;101250.84;;;20.03;46.77
72414;BME280;60995;52.154;4.498;2022-11-25T09:32:13;101252.25;;;19.98;47.01
72414;BME280;60995;52.154;4.498;2022-11-25T09:34:29;101256.53;;;20.67;46.03
72414;BME280;60995;52.154;4.498;2022-11-25T09:36:45;101260.03;;;20.10;46.94
72414;BME280;60995;52.154;4.498;2022-11-25T09:39:01;101258.16;;;19.95;46.77
72414;BME280;60995;52.154;4.498;2022-11-25T09:47:09;101258.97;;;17.85;53.08
72414;BME280;60995;52.154;4.498;2022-11-25T09:55:26;101285.00;;;16.23;58.64
72414;BME280;60995;52.154;4.498;2022-11-25T10:00:35;101288.66;;;14.53;63.95
72414;BME280;60995;52.154;4.498;2022-11-25T10:05:19;101295.47;;;14.39;66.45
72414;BME280;60995;52.154;4.498;2022-11-25T10:07:44;101303.03;;;14.55;65.42
72414;BME280;60995;52.154;4.498;2022-11-25T10:10:06;101310.00;;;14.67;65.62
72414;BME280;60995;52.154;4.498;2022-11-25T10:12:34;101308.84;;;15.60;63.38
72414;BME280;60995;52.154;4.498;2022-11-25T10:14:57;101300.63;;;16.04;62.27
72414;BME280;60995;52.154;4.498;2022-11-25T10:20:11;101310.59;;;17.08;57.04
72414;BME280;60995;52.154;4.498;2022-11-25T10:22:41;101302.56;;;17.80;55.17
72414;BME280;60995;52.154;4.498;2022-11-25T10:27:37;101311.66;;;17.64;54.48
72414;BME280;60995;52.154;4.498;2022-11-25T10:32:42;101332.63;;;15.24;61.67
72414;BME280;60995;52.154;4.498;2022-11-25T10:35:06;101334.28;;;14.70;64.28
72414;BME280;60995;52.154;4.498;2022-11-25T10:37:33;101340.13;;;15.21;63.69
72414;BME280;60995;52.154;4.498;2022-11-25T10:39:55;101341.28;;;16.60;59.12
72414;BME280;60995;52.154;4.498;2022-11-25T10:42:17;101347.50;;;17.38;56.92
72414;BME280;60995;52.154;4.498;2022-11-25T10:44:37;101359.16;;;16.73;59.62
72414;BME280;60995;52.154;4.498;2022-11-25T10:50:15;101366.56;;;18.06;55.11
72414;BME280;60995;52.154;4.498;2022-11-25T10:52:29;101384.09;;;19.55;51.17
72414;BME280;60995;52.154;4.498;2022-11-25T10:57:27;101372.78;;;20.11;51.15
72414;BME280;60995;52.154;4.498;2022-11-25T10:59:57;101388.63;;;18.85;55.29
72414;BME280;60995;52.154;4.498;2022-11-25T11:07:11;101387.56;;;16.72;61.63
72414;BME280;60995;52.154;4.498;2022-11-25T11:09:36;101390.25;;;16.29;61.80
72414;BME280;60995;52.154;4.498;2022-11-25T11:11:55;101405.44;;;15.43;64.94
72414;BME280;60995;52.154;4.498;2022-11-25T11:14:12;101405.81;;;14.84;66.64
72414;BME280;60995;52.154;4.498;2022-11-25T11:16:37;101409.88;;;14.32;68.23
72414;BME280;60995;52.154;4.498;2022-11-25T11:18:57;101419.72;;;14.05;69.35
72414;BME280;60995;52.154;4.498;2022-11-25T11:21:35;101405.22;;;13.95;70.51
72414;BME280;60995;52.154;4.498;2022-11-25T11:23:52;101415.75;;;14.37;69.55
72414;BME280;60995;52.154;4.498;2022-11-25T11:26:10;101419.34;;;15.31;66.72
72414;BME280;60995;52.154;4.498;2022-11-25T11:28:40;101418.41;;;16.13;63.60
72414;BME280;60995;52.154;4.498;2022-11-25T11:31:28;101437.81;;;16.01;62.74
72414;BME280;60995;52.154;4.498;2022-11-25T11:36:29;101421.38;;;16.28;62.03
72414;BME280;60995;52.154;4.498;2022-11-25T11:39:44;101434.44;;;16.08;62.40
72414;BME280;60995;52.154;4.498;2022-11-25T11:41:35;101442.19;;;15.94;62.75
72414;BME280;60995;52.154;4.498;2022-11-25T11:44:07;101440.78;;;15.54;64.15
72414;BME280;60995;52.154;4.498;2022-11-25T11:46:39;101445.25;;;15.27;65.08
72414;BME280;60995;52.154;4.498;2022-11-25T11:53:54;101458.94;;;15.27;67.49
72414;BME280;60995;52.154;4.498;2022-11-25T11:56:36;101463.75;;;15.15;67.42
72414;BME280;60995;52.154;4.498;2022-11-25T12:04:25;101464.66;;;15.06;66.96
72414;BME280;60995;52.154;4.498;2022-11-25T12:06:43;101475.53;;;15.16;66.83
72414;BME280;60995;52.154;4.498;2022-11-25T12:09:13;101481.53;;;15.29;65.20
72414;BME280;60995;52.154;4.498;2022-11-25T12:11:36;101478.34;;;15.06;66.34
72414;BME280;60995;52.154;4.498;2022-11-25T12:13:59;101479.09;;;14.98;67.11
72414;BME280;60995;52.154;4.498;2022-11-25T12:16:39;101479.31;;;15.15;66.43
72414;BME280;60995;52.154;4.498;2022-11-25T12:19:14;101486.53;;;15.06;66.27
72414;BME280;60995;52.154;4.498;2022-11-25T12:24:08;101494.44;;;14.52;67.97
72414;BME280;60995;52.154;4.498;2022-11-25T12:29:04;101501.25;;;14.28;69.17
72414;BME280;60995;52.154;4.498;2022-11-25T12:31:29;101504.28;;;14.05;69.79
72414;BME280;60995;52.154;4.498;2022-11-25T12:34:40;101504.72;;;14.01;69.79
72414;BME280;60995;52.154;4.498;2022-11-25T12:36:50;101512.59;;;14.23;68.85
72414;BME280;60995;52.154;4.498;2022-11-25T12:46:36;101517.16;;;14.52;64.90
72414;BME280;60995;52.154;4.498;2022-11-25T12:48:54;101533.81;;;14.49;65.16
72414;BME280;60995;52.154;4.498;2022-11-25T12:53:35;101536.44;;;14.41;65.39
72414;BME280;60995;52.154;4.498;2022-11-25T12:55:59;101541.06;;;14.21;66.33
72414;BME280;60995;52.154;4.498;2022-11-25T12:58:44;101536.44;;;14.31;66.00
72414;BME280;60995;52.154;4.498;2022-11-25T13:11:45;101551.81;;;14.32;65.74
72414;BME280;60995;52.154;4.498;2022-11-25T13:16:59;101552.81;;;14.12;66.65
72414;BME280;60995;52.154;4.498;2022-11-25T13:19:16;101555.13;;;14.16;66.55
72414;BME280;60995;52.154;4.498;2022-11-25T13:21:33;101564.75;;;14.11;66.04
72414;BME280;60995;52.154;4.498;2022-11-25T13:23:50;101566.03;;;14.06;66.02
72414;BME280;60995;52.154;4.498;2022-11-25T13:28:51;101583.00;;;14.20;66.37
72414;BME280;60995;52.154;4.498;2022-11-25T13:35:59;101582.06;;;13.80;67.26
72414;BME280;60995;52.154;4.498;2022-11-25T13:38:35;101595.31;;;13.85;67.06
72414;BME280;60995;52.154;4.498;2022-11-25T13:43:26;101604.81;;;14.00;67.40
72414;BME280;60995;52.154;4.498;2022-11-25T13:45:43;101604.66;;;14.12;66.83
72414;BME280;60995;52.154;4.498;2022-11-25T13:48:03;101605.69;;;14.11;67.24